sensor_id;sensor_type;location;lat;lon;timestamp;pressure;altitude;pressure_sealevel;temperature;humidity
20037;BME280;10179;42.640;23.312;2024-01-15T00:00:33;93097.53;;;4.99;40.71
20037;BME280;10179;42.640;23.312;2024-01-15T00:02:58;93027.19;;;4.61;40.55
20037;BME280;10179;42.640;23.312;2024-01-15T00:05:24;93093.94;;;4.94;40.66
20037;BME280;10179;42.640;23.312;2024-01-15T00:07:49;93085.16;;;4.88;40.86
20037;BME280;10179;42.640;23.312;2024-01-15T00:10:14;93082.34;;;4.90;41.03
20037;BME280;10179;42.640;23.312;2024-01-15T00:12:40;93086.75;;;4.89;40.91
20037;BME280;10179;42.640;23.312;2024-01-15T00:15:05;92876.28;;;3.51;40.82
20037;BME280;10179;42.640;23.312;2024-01-15T00:17:31;93075.56;;;4.82;40.95
20037;BME280;10179;42.640;23.312;2024-01-15T00:19:56;93062.78;;;4.74;41.25
20037;BME280;10179;42.640;23.312;2024-01-15T00:22:25;93062.78;;;4.74;40.93
20037;BME280;10179;42.640;23.312;2024-01-15T00:24:50;93035.63;;;4.57;40.86
20037;BME280;10179;42.640;23.312;2024-01-15T00:27:15;93081.56;;;4.83;40.96
20037;BME280;10179;42.640;23.312;2024-01-15T00:29:41;93043.22;;;4.51;41.00
20037;BME280;10179;42.640;23.312;2024-01-15T00:32:06;93093.56;;;4.77;41.05
20037;BME280;10179;42.640;23.312;2024-01-15T00:34:31;93090.38;;;4.75;40.95
20037;BME280;10179;42.640;23.312;2024-01-15T00:36:57;93089.59;;;4.68;41.45
20037;BME280;10179;42.640;23.312;2024-01-15T00:39:22;93081.59;;;4.63;41.70
20037;BME280;10179;42.640;23.312;2024-01-15T00:41:47;93078.03;;;4.50;42.04
20037;BME280;10179;42.640;23.312;2024-01-15T00:44:13;93088.03;;;4.60;41.76
20037;BME280;10179;42.640;23.312;2024-01-15T00:46:43;93091.22;;;4.55;41.84
20037;BME280;10179;42.640;23.312;2024-01-15T00:49:09;93082.38;;;4.70;41.23
20037;BME280;10179;42.640;23.312;2024-01-15T00:51:35;92906.63;;;3.57;41.29
20037;BME280;10179;42.640;23.312;2024-01-15T00:54:00;93066.84;;;4.50;40.90
20037;BME280;10179;42.640;23.312;2024-01-15T00:56:26;92968.94;;;3.91;41.84
20037;BME280;10179;42.640;23.312;2024-01-15T00:58:51;93081.59;;;4.63;41.98
20037;BME280;10179;42.640;23.312;2024-01-15T01:01:16;93022.47;;;4.25;41.64
20037;BME280;10179;42.640;23.312;2024-01-15T01:03:42;93078.41;;;4.61;41.82
20037;BME280;10179;42.640;23.312;2024-01-15T01:06:07;93076.38;;;4.69;41.88
20037;BME280;10179;42.640;23.312;2024-01-15T01:08:32;92981.91;;;4.04;41.41
20037;BME280;10179;42.640;23.312;2024-01-15T01:10:58;93074.19;;;4.60;41.63
20037;BME280;10179;42.640;23.312;2024-01-15T01:13:23;93087.38;;;4.78;41.65
20037;BME280;10179;42.640;23.312;2024-01-15T01:15:48;93077.00;;;4.78;41.73
20037;BME280;10179;42.640;23.312;2024-01-15T01:18:14;93080.41;;;4.65;41.17
20037;BME280;10179;42.640;23.312;2024-01-15T01:20:39;92984.91;;;4.07;41.31
20037;BME280;10179;42.640;23.312;2024-01-15T01:23:04;93040.44;;;4.33;41.24
20037;BME280;10179;42.640;23.312;2024-01-15T01:25:30;93038.25;;;4.30;41.40
20037;BME280;10179;42.640;23.312;2024-01-15T01:27:55;93044.06;;;4.32;41.91
20037;BME280;10179;42.640;23.312;2024-01-15T01:30:21;93032.03;;;4.24;41.93
20037;BME280;10179;42.640;23.312;2024-01-15T01:32:46;92963.94;;;3.82;42.31
20037;BME280;10179;42.640;23.312;2024-01-15T01:35:12;92993.69;;;3.67;42.55
20037;BME280;10179;42.640;23.312;2024-01-15T01:37:37;93054.63;;;4.44;41.75
20037;BME280;10179;42.640;23.312;2024-01-15T01:40:03;93035.03;;;4.28;42.23
20037;BME280;10179;42.640;23.312;2024-01-15T01:42:29;93024.47;;;4.10;42.08
20037;BME280;10179;42.640;23.312;2024-01-15T01:44:54;93050.44;;;4.29;42.48
20037;BME280;10179;42.640;23.312;2024-01-15T01:47:19;92983.31;;;3.80;42.53
20037;BME280;10179;42.640;23.312;2024-01-15T01:49:45;92962.53;;;3.53;42.54
20037;BME280;10179;42.640;23.312;2024-01-15T01:52:11;93048.47;;;4.12;42.73
20037;BME280;10179;42.640;23.312;2024-01-15T01:54:37;93046.84;;;4.11;43.26
20037;BME280;10179;42.640;23.312;2024-01-15T01:57:05;93011.28;;;3.91;43.17
20037;BME280;10179;42.640;23.312;2024-01-15T01:59:33;92992.50;;;3.63;43.27
20037;BME280;10179;42.640;23.312;2024-01-15T02:02:00;93039.88;;;4.18;42.59
20037;BME280;10179;42.640;23.312;2024-01-15T02:04:26;93020.50;;;4.00;42.90
20037;BME280;10179;42.640;23.312;2024-01-15T02:06:52;92889.47;;;3.17;42.87
20037;BME280;10179;42.640;23.312;2024-01-15T02:09:18;93037.28;;;4.11;42.99
20037;BME280;10179;42.640;23.312;2024-01-15T02:11:46;93036.44;;;4.11;43.26
20037;BME280;10179;42.640;23.312;2024-01-15T02:14:11;92856.50;;;2.97;43.39
20037;BME280;10179;42.640;23.312;2024-01-15T02:16:37;93025.88;;;4.05;43.26
20037;BME280;10179;42.640;23.312;2024-01-15T02:19:02;93018.47;;;4.02;43.18
20037;BME280;10179;42.640;23.312;2024-01-15T02:21:27;92961.94;;;3.65;43.16
20037;BME280;10179;42.640;23.312;2024-01-15T02:23:54;92922.63;;;3.48;43.49
20037;BME280;10179;42.640;23.312;2024-01-15T02:26:20;93003.28;;;3.99;43.31
20037;BME280;10179;42.640;23.312;2024-01-15T02:28:46;92968.94;;;4.04;43.47
20037;BME280;10179;42.640;23.312;2024-01-15T02:31:11;92940.94;;;3.93;43.02
20037;BME280;10179;42.640;23.312;2024-01-15T02:33:36;92970.31;;;4.06;43.12
20037;BME280;10179;42.640;23.312;2024-01-15T02:36:02;92959.75;;;3.88;43.15
20037;BME280;10179;42.640;23.312;2024-01-15T02:38:27;92979.31;;;3.97;43.05
20037;BME280;10179;42.640;23.312;2024-01-15T02:40:53;92973.34;;;3.97;43.16
20037;BME280;10179;42.640;23.312;2024-01-15T02:43:18;92980.50;;;3.95;43.30
20037;BME280;10179;42.640;23.312;2024-01-15T02:45:44;92977.53;;;3.91;43.42
20037;BME280;10179;42.640;23.312;2024-01-15T02:48:10;92921.41;;;3.57;43.42
20037;BME280;10179;42.640;23.312;2024-01-15T02:50:36;92978.13;;;3.93;43.57
20037;BME280;10179;42.640;23.312;2024-01-15T02:53:01;92969.34;;;3.94;43.61
20037;BME280;10179;42.640;23.312;2024-01-15T02:55:27;92973.13;;;3.98;43.37
20037;BME280;10179;42.640;23.312;2024-01-15T02:57:54;92907.41;;;3.65;43.48
20037;BME280;10179;42.640;23.312;2024-01-15T03:00:20;92914.41;;;3.71;43.70
20037;BME280;10179;42.640;23.312;2024-01-15T03:02:45;92927.78;;;3.81;43.57
20037;BME280;10179;42.640;23.312;2024-01-15T03:05:11;92911.81;;;3.71;43.47
20037;BME280;10179;42.640;23.312;2024-01-15T03:07:36;92962.69;;;4.25;43.37
20037;BME280;10179;42.640;23.312;2024-01-15T03:10:02;92865.28;;;3.76;43.12
20037;BME280;10179;42.640;23.312;2024-01-15T03:12:27;92931.53;;;4.12;42.82
20037;BME280;10179;42.640;23.312;2024-01-15T03:14:53;92972.25;;;4.44;42.92
20037;BME280;10179;42.640;23.312;2024-01-15T03:17:18;92934.91;;;4.32;42.69
20037;BME280;10179;42.640;23.312;2024-01-15T03:19:44;92958.84;;;4.47;42.40
20037;BME280;10179;42.640;23.312;2024-01-15T03:22:09;92966.03;;;4.45;42.84
20037;BME280;10179;42.640;23.312;2024-01-15T03:24:35;92934.91;;;4.32;42.58
20037;BME280;10179;42.640;23.312;2024-01-15T03:27:01;92932.88;;;4.34;42.93
20037;BME280;10179;42.640;23.312;2024-01-15T03:29:26;92928.81;;;4.51;42.87
20037;BME280;10179;42.640;23.312;2024-01-15T03:31:52;92947.63;;;4.53;42.78
20037;BME280;10179;42.640;23.312;2024-01-15T03:34:17;92955.19;;;4.62;42.56
20037;BME280;10179;42.640;23.312;2024-01-15T03:36:43;92908.81;;;4.59;42.30
20037;BME280;10179;42.640;23.312;2024-01-15T03:39:08;92947.63;;;4.53;42.97
20037;BME280;10179;42.640;23.312;2024-01-15T03:41:34;92779.25;;;3.52;42.99
20037;BME280;10179;42.640;23.312;2024-01-15T03:43:59;92927.66;;;4.47;43.10
20037;BME280;10179;42.640;23.312;2024-01-15T03:46:24;92939.63;;;4.48;43.06
20037;BME280;10179;42.640;23.312;2024-01-15T03:48:50;92942.84;;;4.50;43.09
20037;BME280;10179;42.640;23.312;2024-01-15T03:51:17;92882.59;;;4.09;42.72
20037;BME280;10179;42.640;23.312;2024-01-15T03:53:42;92882.19;;;4.05;43.05
20037;BME280;10179;42.640;23.312;2024-01-15T03:56:08;92946.78;;;4.60;43.02
20037;BME280;10179;42.640;23.312;2024-01-15T03:58:33;92951.59;;;4.63;42.63
20037;BME280;10179;42.640;23.312;2024-01-15T04:00:58;92913.22;;;4.51;42.51
20037;BME280;10179;42.640;23.312;2024-01-15T04:03:24;92936.38;;;4.60;42.78
20037;BME280;10179;42.640;23.312;2024-01-15T04:05:49;92922.56;;;4.66;42.96
20037;BME280;10179;42.640;23.312;2024-01-15T04:08:14;92890.03;;;4.50;42.42
20037;BME280;10179;42.640;23.312;2024-01-15T04:10:40;92919.16;;;4.72;42.43
20037;BME280;10179;42.640;23.312;2024-01-15T04:13:05;92870.09;;;4.37;42.42
20037;BME280;10179;42.640;23.312;2024-01-15T04:15:31;92920.78;;;4.60;42.44
20037;BME280;10179;42.640;23.312;2024-01-15T04:17:56;92916.03;;;4.57;42.92
20037;BME280;10179;42.640;23.312;2024-01-15T04:20:21;92922.03;;;4.50;43.04
20037;BME280;10179;42.640;23.312;2024-01-15T04:22:47;92911.03;;;4.48;43.29
20037;BME280;10179;42.640;23.312;2024-01-15T04:25:12;92922.84;;;4.51;43.35
20037;BME280;10179;42.640;23.312;2024-01-15T04:27:37;92923.63;;;4.51;43.33
20037;BME280;10179;42.640;23.312;2024-01-15T04:30:03;92904.50;;;4.39;43.19
20037;BME280;10179;42.640;23.312;2024-01-15T04:32:28;92933.63;;;4.54;42.83
20037;BME280;10179;42.640;23.312;2024-01-15T04:34:55;92887.09;;;4.33;42.44
20037;BME280;10179;42.640;23.312;2024-01-15T04:37:20;92932.84;;;4.47;42.38
20037;BME280;10179;42.640;23.312;2024-01-15T04:39:46;92925.47;;;4.38;42.90
20037;BME280;10179;42.640;23.312;2024-01-15T04:42:11;92920.50;;;4.29;43.27
20037;BME280;10179;42.640;23.312;2024-01-15T04:44:36;92922.50;;;4.21;43.61
20037;BME280;10179;42.640;23.312;2024-01-15T04:47:02;92910.34;;;4.15;43.29
20037;BME280;10179;42.640;23.312;2024-01-15T04:49:27;92907.78;;;4.08;43.60
20037;BME280;10179;42.640;23.312;2024-01-15T04:51:54;92897.00;;;3.91;43.96
20037;BME280;10179;42.640;23.312;2024-01-15T04:54:19;92908.16;;;4.12;43.93
20037;BME280;10179;42.640;23.312;2024-01-15T04:56:45;92902.97;;;4.12;44.05
20037;BME280;10179;42.640;23.312;2024-01-15T04:59:11;92892.97;;;4.09;43.81
20037;BME280;10179;42.640;23.312;2024-01-15T05:01:36;92791.25;;;3.40;44.02
20037;BME280;10179;42.640;23.312;2024-01-15T05:04:02;92898.75;;;4.11;44.16
20037;BME280;10179;42.640;23.312;2024-01-15T05:06:27;92890.56;;;4.14;44.34
20037;BME280;10179;42.640;23.312;2024-01-15T05:08:53;92836.91;;;3.68;44.32
20037;BME280;10179;42.640;23.312;2024-01-15T05:11:18;92887.75;;;4.22;44.18
20037;BME280;10179;42.640;23.312;2024-01-15T05:13:44;92884.31;;;4.28;43.82
20037;BME280;10179;42.640;23.312;2024-01-15T05:16:09;92738.94;;;3.43;43.89
20037;BME280;10179;42.640;23.312;2024-01-15T05:18:35;92887.50;;;4.37;43.68
20037;BME280;10179;42.640;23.312;2024-01-15T05:21:02;92901.81;;;3.81;42.97
20037;BME280;10179;42.640;23.312;2024-01-15T05:23:28;92880.94;;;4.21;43.55
20037;BME280;10179;42.640;23.312;2024-01-15T05:25:53;92890.59;;;4.00;43.51
20037;BME280;10179;42.640;23.312;2024-01-15T05:28:19;92832.72;;;3.80;43.06
20037;BME280;10179;42.640;23.312;2024-01-15T05:30:44;92855.88;;;3.75;43.14
20037;BME280;10179;42.640;23.312;2024-01-15T05:33:09;92887.00;;;3.95;43.67
20037;BME280;10179;42.640;23.312;2024-01-15T05:35:35;92884.03;;;3.85;43.81
20037;BME280;10179;42.640;23.312;2024-01-15T05:38:00;92884.03;;;3.78;43.91
20037;BME280;10179;42.640;23.312;2024-01-15T05:40:26;92880.66;;;3.71;44.17
20037;BME280;10179;42.640;23.312;2024-01-15T05:42:51;92505.94;;;1.31;44.18
20037;BME280;10179;42.640;23.312;2024-01-15T05:45:17;92883.06;;;3.66;44.41
20037;BME280;10179;42.640;23.312;2024-01-15T05:47:42;92875.47;;;3.64;44.93
20037;BME280;10179;42.640;23.312;2024-01-15T05:50:09;92868.91;;;3.62;44.72
20037;BME280;10179;42.640;23.312;2024-01-15T05:52:35;92813.81;;;3.26;44.55
20037;BME280;10179;42.640;23.312;2024-01-15T05:55:00;92863.69;;;3.15;45.15
20037;BME280;10179;42.640;23.312;2024-01-15T05:57:25;92735.47;;;2.71;44.94
20037;BME280;10179;42.640;23.312;2024-01-15T05:59:51;92866.72;;;3.52;45.60
20037;BME280;10179;42.640;23.312;2024-01-15T06:02:16;92838.38;;;3.37;45.65
20037;BME280;10179;42.640;23.312;2024-01-15T06:04:42;92874.69;;;3.57;45.55
20037;BME280;10179;42.640;23.312;2024-01-15T06:07:07;92834.97;;;3.43;45.62
20037;BME280;10179;42.640;23.312;2024-01-15T06:09:33;92870.88;;;3.73;45.53
20037;BME280;10179;42.640;23.312;2024-01-15T06:11:59;92866.66;;;3.78;45.26
20037;BME280;10179;42.640;23.312;2024-01-15T06:14:25;92869.66;;;3.82;45.17
20037;BME280;10179;42.640;23.312;2024-01-15T06:16:50;92783.47;;;3.40;45.43
20037;BME280;10179;42.640;23.312;2024-01-15T06:19:15;92863.41;;;3.96;45.05
20037;BME280;10179;42.640;23.312;2024-01-15T06:21:41;92823.16;;;3.67;44.72
20037;BME280;10179;42.640;23.312;2024-01-15T06:24:06;92813.97;;;3.65;45.10
20037;BME280;10179;42.640;23.312;2024-01-15T06:26:32;92512.31;;;1.75;44.50
20037;BME280;10179;42.640;23.312;2024-01-15T06:28:57;92832.34;;;3.70;45.03
20037;BME280;10179;42.640;23.312;2024-01-15T06:31:23;92856.22;;;3.98;45.37
20037;BME280;10179;42.640;23.312;2024-01-15T06:33:48;92859.44;;;4.00;45.28
20037;BME280;10179;42.640;23.312;2024-01-15T06:36:14;92858.59;;;4.06;45.39
20037;BME280;10179;42.640;23.312;2024-01-15T06:38:42;92856.38;;;4.17;45.35
20037;BME280;10179;42.640;23.312;2024-01-15T06:41:08;92862.53;;;4.29;45.09
20037;BME280;10179;42.640;23.312;2024-01-15T06:43:33;92815.03;;;4.09;45.02
20037;BME280;10179;42.640;23.312;2024-01-15T06:45:58;92864.84;;;4.50;44.56
20037;BME280;10179;42.640;23.312;2024-01-15T06:48:24;92877.03;;;4.57;44.36
20037;BME280;10179;42.640;23.312;2024-01-15T06:50:49;92345.22;;;1.21;44.14
20037;BME280;10179;42.640;23.312;2024-01-15T06:53:14;92850.44;;;4.54;44.05
20037;BME280;10179;42.640;23.312;2024-01-15T06:55:40;92847.59;;;4.56;44.38
20037;BME280;10179;42.640;23.312;2024-01-15T06:58:05;92876.53;;;4.73;44.40
20037;BME280;10179;42.640;23.312;2024-01-15T07:00:31;92883.53;;;4.72;43.63
20037;BME280;10179;42.640;23.312;2024-01-15T07:02:56;92731.84;;;3.77;43.54
20037;BME280;10179;42.640;23.312;2024-01-15T07:05:22;92876.72;;;4.78;43.81
20037;BME280;10179;42.640;23.312;2024-01-15T07:07:47;92889.84;;;4.90;43.78
20037;BME280;10179;42.640;23.312;2024-01-15T07:10:13;92892.41;;;4.96;43.84
20037;BME280;10179;42.640;23.312;2024-01-15T07:12:38;92892.50;;;5.15;43.24
20037;BME280;10179;42.640;23.312;2024-01-15T07:15:04;92895.25;;;5.26;43.20
20037;BME280;10179;42.640;23.312;2024-01-15T07:17:32;92893.97;;;5.36;42.95
20037;BME280;10179;42.640;23.312;2024-01-15T07:19:57;92854.44;;;5.20;42.75
20037;BME280;10179;42.640;23.312;2024-01-15T07:22:22;92880.25;;;5.47;42.36
20037;BME280;10179;42.640;23.312;2024-01-15T07:24:48;92870.19;;;5.50;42.25
20037;BME280;10179;42.640;23.312;2024-01-15T07:27:13;92809.22;;;5.15;41.91
20037;BME280;10179;42.640;23.312;2024-01-15T07:29:38;92870.75;;;5.59;41.97
20037;BME280;10179;42.640;23.312;2024-01-15T07:32:04;92872.50;;;5.65;41.79
20037;BME280;10179;42.640;23.312;2024-01-15T07:34:30;92843.06;;;5.40;41.55
20037;BME280;10179;42.640;23.312;2024-01-15T07:36:57;92886.88;;;5.68;42.03
20037;BME280;10179;42.640;23.312;2024-01-15T07:39:22;92866.78;;;5.75;41.87
20037;BME280;10179;42.640;23.312;2024-01-15T07:41:50;92785.09;;;5.26;41.98
20037;BME280;10179;42.640;23.312;2024-01-15T07:44:15;92821.00;;;5.42;42.06
20037;BME280;10179;42.640;23.312;2024-01-15T07:46:44;92871.00;;;5.76;42.22
20037;BME280;10179;42.640;23.312;2024-01-15T07:49:10;92810.28;;;5.32;42.42
20037;BME280;10179;42.640;23.312;2024-01-15T07:51:35;92877.31;;;5.87;42.30
20037;BME280;10179;42.640;23.312;2024-01-15T07:54:02;92946.88;;;5.86;42.28
20037;BME280;10179;42.640;23.312;2024-01-15T07:56:27;92885.56;;;5.84;42.18
20037;BME280;10179;42.640;23.312;2024-01-15T07:58:52;92881.56;;;5.81;42.49
20037;BME280;10179;42.640;23.312;2024-01-15T08:01:18;92789.13;;;5.22;42.43
20037;BME280;10179;42.640;23.312;2024-01-15T08:03:43;92867.34;;;5.59;43.04
20037;BME280;10179;42.640;23.312;2024-01-15T08:06:08;92825.38;;;5.48;42.66
20037;BME280;10179;42.640;23.312;2024-01-15T08:08:35;92771.84;;;5.09;42.77
20037;BME280;10179;42.640;23.312;2024-01-15T08:11:00;92845.06;;;5.63;42.96
20037;BME280;10179;42.640;23.312;2024-01-15T08:13:26;92822.59;;;5.43;43.23
20037;BME280;10179;42.640;23.312;2024-01-15T08:15:52;92837.75;;;5.53;42.71
20037;BME280;10179;42.640;23.312;2024-01-15T08:18:17;92851.56;;;5.54;42.51
20037;BME280;10179;42.640;23.312;2024-01-15T08:20:43;92883.91;;;5.64;42.28
20037;BME280;10179;42.640;23.312;2024-01-15T08:23:08;92817.22;;;5.20;42.28
20037;BME280;10179;42.640;23.312;2024-01-15T08:25:34;92756.22;;;4.84;42.49
20037;BME280;10179;42.640;23.312;2024-01-15T08:28:00;92878.50;;;5.66;41.95
20037;BME280;10179;42.640;23.312;2024-01-15T08:30:25;92796.59;;;5.18;42.21
20037;BME280;10179;42.640;23.312;2024-01-15T08:32:53;92827.06;;;5.36;42.18
20037;BME280;10179;42.640;23.312;2024-01-15T08:35:19;92864.84;;;5.89;42.09
20037;BME280;10179;42.640;23.312;2024-01-15T08:37:51;92839.88;;;5.81;41.95
20037;BME280;10179;42.640;23.312;2024-01-15T08:40:16;92734.66;;;5.27;42.00
20037;BME280;10179;42.640;23.312;2024-01-15T08:42:42;92833.66;;;6.07;41.31
20037;BME280;10179;42.640;23.312;2024-01-15T08:45:08;92858.91;;;6.25;40.90
20037;BME280;10179;42.640;23.312;2024-01-15T08:47:34;92840.75;;;6.18;41.09
20037;BME280;10179;42.640;23.312;2024-01-15T08:49:59;92846.59;;;6.32;40.97
20037;BME280;10179;42.640;23.312;2024-01-15T08:52:25;92847.31;;;6.39;41.11
20037;BME280;10179;42.640;23.312;2024-01-15T08:54:50;92809.38;;;6.25;40.82
20037;BME280;10179;42.640;23.312;2024-01-15T08:57:16;92847.72;;;6.55;40.90
20037;BME280;10179;42.640;23.312;2024-01-15T08:59:41;92834.38;;;6.63;40.65
20037;BME280;10179;42.640;23.312;2024-01-15T09:02:07;92536.16;;;4.83;40.75
20037;BME280;10179;42.640;23.312;2024-01-15T09:04:33;92816.19;;;6.86;39.95
20037;BME280;10179;42.640;23.312;2024-01-15T09:06:58;92818.97;;;6.91;40.01
20037;BME280;10179;42.640;23.312;2024-01-15T09:09:23;92806.03;;;6.97;39.80
20037;BME280;10179;42.640;23.312;2024-01-15T09:11:50;92755.38;;;6.74;39.99
20037;BME280;10179;42.640;23.312;2024-01-15T09:14:15;92782.19;;;7.05;39.69
20037;BME280;10179;42.640;23.312;2024-01-15T09:16:41;92758.47;;;6.94;39.43
20037;BME280;10179;42.640;23.312;2024-01-15T09:19:06;92764.28;;;7.08;39.79
20037;BME280;10179;42.640;23.312;2024-01-15T09:21:31;92670.81;;;6.52;39.49
20037;BME280;10179;42.640;23.312;2024-01-15T09:23:57;92759.09;;;7.20;39.25
20037;BME280;10179;42.640;23.312;2024-01-15T09:26:23;92756.22;;;7.22;38.80
20037;BME280;10179;42.640;23.312;2024-01-15T09:28:49;92754.31;;;7.17;39.04
20037;BME280;10179;42.640;23.312;2024-01-15T09:31:14;92535.16;;;5.63;39.13
20037;BME280;10179;42.640;23.312;2024-01-15T09:33:40;92730.09;;;6.86;39.91
20037;BME280;10179;42.640;23.312;2024-01-15T09:36:05;92740.00;;;7.08;40.22
20037;BME280;10179;42.640;23.312;2024-01-15T09:38:31;92747.56;;;6.86;39.72
20037;BME280;10179;42.640;23.312;2024-01-15T09:40:57;92722.00;;;6.76;39.64
20037;BME280;10179;42.640;23.312;2024-01-15T09:43:22;92747.03;;;6.96;39.81
20037;BME280;10179;42.640;23.312;2024-01-15T09:45:49;92721.41;;;6.62;40.35
20037;BME280;10179;42.640;23.312;2024-01-15T09:48:14;92359.13;;;4.36;40.25
20037;BME280;10179;42.640;23.312;2024-01-15T09:50:40;92722.84;;;6.47;40.38
20037;BME280;10179;42.640;23.312;2024-01-15T09:53:05;92663.56;;;6.12;41.28
20037;BME280;10179;42.640;23.312;2024-01-15T09:55:32;92708.53;;;6.37;41.27
20037;BME280;10179;42.640;23.312;2024-01-15T09:57:59;92685.31;;;6.36;40.92
20037;BME280;10179;42.640;23.312;2024-01-15T10:00:26;92709.25;;;6.44;41.00
20037;BME280;10179;42.640;23.312;2024-01-15T10:02:52;92670.19;;;6.26;39.81
20037;BME280;10179;42.640;23.312;2024-01-15T10:05:18;92694.63;;;6.43;40.15
20037;BME280;10179;42.640;23.312;2024-01-15T10:07:45;92710.38;;;6.49;40.66
20037;BME280;10179;42.640;23.312;2024-01-15T10:10:11;92610.38;;;5.71;40.40
20037;BME280;10179;42.640;23.312;2024-01-15T10:12:37;92604.25;;;5.95;40.49
20037;BME280;10179;42.640;23.312;2024-01-15T10:15:04;92581.88;;;5.76;40.91
20037;BME280;10179;42.640;23.312;2024-01-15T10:17:30;92686.72;;;6.62;40.94
20037;BME280;10179;42.640;23.312;2024-01-15T10:19:57;92697.16;;;6.62;41.07
20037;BME280;10179;42.640;23.312;2024-01-15T10:22:22;92676.88;;;6.64;40.87
20037;BME280;10179;42.640;23.312;2024-01-15T10:24:48;92475.09;;;5.34;40.59
20037;BME280;10179;42.640;23.312;2024-01-15T10:27:13;92673.09;;;6.60;40.87
20037;BME280;10179;42.640;23.312;2024-01-15T10:29:41;92606.38;;;6.29;40.52
20037;BME280;10179;42.640;23.312;2024-01-15T10:32:07;92636.56;;;6.48;40.90
20037;BME280;10179;42.640;23.312;2024-01-15T10:34:37;92644.66;;;6.93;40.37
20037;BME280;10179;42.640;23.312;2024-01-15T10:37:03;92658.28;;;6.96;40.20
20037;BME280;10179;42.640;23.312;2024-01-15T10:39:29;92634.00;;;6.95;40.29
20037;BME280;10179;42.640;23.312;2024-01-15T10:41:55;92640.22;;;7.17;40.14
20037;BME280;10179;42.640;23.312;2024-01-15T10:44:20;92653.25;;;7.29;40.17
20037;BME280;10179;42.640;23.312;2024-01-15T10:46:46;92651.53;;;7.47;40.29
20037;BME280;10179;42.640;23.312;2024-01-15T10:49:12;92639.56;;;7.62;39.63
20037;BME280;10179;42.640;23.312;2024-01-15T10:51:38;92640.13;;;7.64;39.64
20037;BME280;10179;42.640;23.312;2024-01-15T10:54:04;92633.94;;;7.82;39.51
20037;BME280;10179;42.640;23.312;2024-01-15T10:56:31;92628.16;;;7.80;38.93
20037;BME280;10179;42.640;23.312;2024-01-15T10:58:57;92637.13;;;7.84;39.05
20037;BME280;10179;42.640;23.312;2024-01-15T11:01:23;92627.88;;;7.94;38.67
20037;BME280;10179;42.640;23.312;2024-01-15T11:03:49;92622.66;;;7.94;38.46
20037;BME280;10179;42.640;23.312;2024-01-15T11:06:18;92611.25;;;8.00;38.75
20037;BME280;10179;42.640;23.312;2024-01-15T11:08:50;92620.78;;;8.06;38.85
20037;BME280;10179;42.640;23.312;2024-01-15T11:11:17;92614.50;;;8.07;37.77
20037;BME280;10179;42.640;23.312;2024-01-15T11:13:45;92599.41;;;8.09;38.29
20037;BME280;10179;42.640;23.312;2024-01-15T11:16:13;92466.75;;;7.25;38.49
20037;BME280;10179;42.640;23.312;2024-01-15T11:21:25;92606.19;;;8.39;38.21
20037;BME280;10179;42.640;23.312;2024-01-15T11:24:01;92571.91;;;8.23;37.93
20037;BME280;10179;42.640;23.312;2024-01-15T11:28:58;92583.22;;;8.41;37.25
20037;BME280;10179;42.640;23.312;2024-01-15T11:31:55;92606.91;;;8.51;37.44
20037;BME280;10179;42.640;23.312;2024-01-15T11:34:15;92590.81;;;8.59;37.75
20037;BME280;10179;42.640;23.312;2024-01-15T11:41:57;92583.25;;;8.79;37.57
20037;BME280;10179;42.640;23.312;2024-01-15T11:44:23;92590.38;;;8.84;37.41
20037;BME280;10179;42.640;23.312;2024-01-15T11:47:02;92560.28;;;8.81;37.77
20037;BME280;10179;42.640;23.312;2024-01-15T11:52:16;92580.19;;;9.21;37.43
20037;BME280;10179;42.640;23.312;2024-01-15T11:54:48;92553.41;;;9.19;37.05
20037;BME280;10179;42.640;23.312;2024-01-15T11:57:21;92579.88;;;9.40;37.28
20037;BME280;10179;42.640;23.312;2024-01-15T11:59:50;92439.56;;;8.78;37.26
20037;BME280;10179;42.640;23.312;2024-01-15T12:02:15;92553.00;;;9.49;37.20
20037;BME280;10179;42.640;23.312;2024-01-15T12:04:41;92555.97;;;9.58;36.89
20037;BME280;10179;42.640;23.312;2024-01-15T12:07:06;92556.34;;;9.67;36.97
20037;BME280;10179;42.640;23.312;2024-01-15T12:09:31;92427.41;;;8.94;36.83
20037;BME280;10179;42.640;23.312;2024-01-15T12:12:05;92518.88;;;9.71;36.26
20037;BME280;10179;42.640;23.312;2024-01-15T12:14:32;92499.31;;;9.52;35.98
20037;BME280;10179;42.640;23.312;2024-01-15T12:17:00;92549.09;;;9.52;36.33
20037;BME280;10179;42.640;23.312;2024-01-15T12:19:25;92540.50;;;9.56;37.01
20037;BME280;10179;42.640;23.312;2024-01-15T12:21:51;92459.53;;;9.06;36.34
20037;BME280;10179;42.640;23.312;2024-01-15T12:24:17;92545.31;;;9.43;37.08
20037;BME280;10179;42.640;23.312;2024-01-15T12:26:43;92588.41;;;9.52;37.41
20037;BME280;10179;42.640;23.312;2024-01-15T12:29:10;92547.28;;;9.52;37.41
20037;BME280;10179;42.640;23.312;2024-01-15T12:31:36;92531.19;;;9.44;37.56
20037;BME280;10179;42.640;23.312;2024-01-15T12:34:01;92538.72;;;9.62;37.31
20037;BME280;10179;42.640;23.312;2024-01-15T12:36:30;92501.94;;;9.52;37.04
20037;BME280;10179;42.640;23.312;2024-01-15T12:38:59;92532.84;;;9.77;36.94
20037;BME280;10179;42.640;23.312;2024-01-15T12:41:24;92535.03;;;9.85;36.76
20037;BME280;10179;42.640;23.312;2024-01-15T12:43:50;92528.59;;;9.98;36.45
20037;BME280;10179;42.640;23.312;2024-01-15T12:46:16;92522.94;;;10.11;36.21
20037;BME280;10179;42.640;23.312;2024-01-15T12:48:41;92450.31;;;9.79;36.05
20037;BME280;10179;42.640;23.312;2024-01-15T12:51:08;92523.38;;;10.30;35.99
20037;BME280;10179;42.640;23.312;2024-01-15T12:53:33;92482.06;;;10.15;35.95
20037;BME280;10179;42.640;23.312;2024-01-15T12:55:58;92488.72;;;10.28;36.09
20037;BME280;10179;42.640;23.312;2024-01-15T12:58:24;92504.38;;;10.50;35.94
20037;BME280;10179;42.640;23.312;2024-01-15T13:00:49;92510.13;;;10.47;35.63
20037;BME280;10179;42.640;23.312;2024-01-15T13:03:15;92476.31;;;10.18;35.42
20037;BME280;10179;42.640;23.312;2024-01-15T13:05:41;92503.63;;;10.22;35.87